Latest Coastal Weather Observations for Cape Bruny AWS

IDT60701

Issued at 7:42 am EST Wednesday 27 September 2017 (issued every 10 minutes, with the page automatically refreshed every 10 minutes)

About coastal observations | Map of coastal stations | Coastal observations for TAS | Marine services | Other Formats
Station Details ID: 094198 Name: CAPE BRUNY (CAPE BRUNY) Lat: -43.49 Lon: 147.14 Height: 59.7 m
Data from the previous 72 hours. | See also: Recent months at Cape Bruny AWS
Date/Time
EST
Temp
°C
Wind Pressure Rain since
9am
mm
Weather Cloud Vis
km
Sea
Height
m
Swell
Dir  Spd
kts
Gust
kts
hPa Trend Height
m
Period
s
Dir
27/07:30am 7.5 NNE 8 12 1010.9 - 0.2 - - - - - - -
27/07:00am 6.8 NNE 7 10 1011.4 - 0.2 - - - - - - -
27/06:30am 5.8 N 10 12 1011.7 - 0.2 - - - - - - -
27/06:00am 4.9 N 10 11 1011.6 - 0.2 - - - - - - -
27/05:30am 4.6 N 10 11 1011.6 - 0.2 - - - - - - -
27/05:00am 4.7 N 9 10 1011.4 - 0.2 - - - - - - -
27/04:30am 4.8 N 9 11 1011.3 - 0.2 - - - - - - -
27/04:00am 5.4 N 9 12 1011.4 - 0.2 - - - - - - -
27/03:30am 6.0 NNW 11 13 1011.6 - 0.2 - - - - - - -
27/03:00am 5.8 N 10 13 1011.9 - 0.2 - - - - - - -
27/02:30am 5.7 N 10 11 1012.0 - 0.2 - - - - - - -
27/02:00am 5.7 N 10 13 1012.3 - 0.2 - - - - - - -
27/01:30am 6.1 NNW 10 13 1012.7 - 0.2 - - - - - - -
27/01:00am 6.3 N 8 10 1012.9 - 0.2 - - - - - - -
27/12:30am 6.1 N 8 12 1013.1 - 0.2 - - - - - - -
27/12:00am 5.9 N 7 10 1013.2 - 0.2 - - - - - - -
 
Date/Time
EST
Temp
°C
Wind Pressure Rain since
9am
mm
Weather Cloud Vis
km
Sea
Height
m
Swell
Dir  Spd
kts
Gust
kts
hPa Trend Height
m
Period
s
Dir
26/11:30pm 6.9 NNW 10 12 1013.1 - 0.2 - - - - - - -
26/11:00pm 6.5 N 8 9 1013.1 - 0.2 - - - - - - -
26/10:30pm 8.1 WNW 10 13 1013.1 - 0.2 - - - - - - -
26/10:00pm 8.3 WNW 12 15 1013.4 - 0.2 - - - - - - -
26/09:30pm 8.4 WNW 14 17 1013.5 - 0.2 - - - - - - -
26/09:00pm 8.8 W 20 25 1013.6 - 0.2 - - - - - - -
26/08:30pm 9.0 W 17 20 1013.8 - 0.2 - - - - - - -
26/08:00pm 9.0 W 22 27 1013.4 - 0.2 - - - - - - -
26/07:30pm 9.0 W 17 21 1013.5 - 0.2 - - - - - - -
26/07:00pm 9.2 WNW 17 21 1013.3 - 0.2 - - - - - - -
26/06:30pm 9.3 WNW 17 21 1013.1 - 0.2 - - - - - - -
26/06:00pm 9.6 W 19 23 1012.8 - 0.2 - - - - - - -
26/05:30pm 10.2 WNW 17 20 1012.7 - 0.2 - - - - - - -
26/05:00pm 10.5 W 18 21 1012.6 - 0.2 - - - - - - -
26/04:30pm 12.0 WNW 17 21 1012.4 - 0.2 - - - - - - -
26/04:00pm 11.9 WNW 18 23 1012.3 - 0.2 - - - - - - -
26/03:30pm 12.5 W 19 23 1012.1 - 0.2 - - - - - - -
26/03:00pm 12.3 WNW 20 25 1012.0 - 0.2 - - - - - - -
26/02:30pm 11.7 WNW 18 23 1012.0 - 0.2 - - - - - - -
26/02:00pm 13.2 W 12 16 1012.3 - 0.2 - - - - - - -
26/01:30pm 12.7 WSW 13 16 1012.4 - 0.0 - - - - - - -
26/01:00pm 12.6 W 11 16 1012.4 - 0.0 - - - - - - -
26/12:30pm 11.3 W 11 16 1012.4 - 0.0 - - - - - - -
26/12:00pm 11.9 W 11 15 1012.5 - 0.0 - - - - - - -
26/11:30am 10.8 W 15 20 1012.5 - 0.0 - - - - - - -
26/11:00am 10.3 WSW 19 25 1012.5 - 0.0 - - - - - - -
26/10:30am 10.1 WSW 17 25 1012.5 - 0.0 - - - - - - -
26/10:00am 9.4 WSW 17 24 1012.6 - 0.0 - - - - - - -
26/09:30am 9.0 W 12 19 1012.6 - 0.0 - - - - - - -
26/09:00am 9.9 WNW 8 11 1012.3 - 8.4 - - - - - - -
26/08:30am 9.1 WNW 10 13 1012.3 - 8.4 - - - - - - -
26/08:00am 7.5 W 13 20 1012.1 - 8.4 - - - - - - -
26/07:30am 7.4 WNW 12 16 1011.7 - 8.4 - - - - - - -
26/07:00am 6.8 W 14 17 1011.4 - 8.4 - - - - - - -
26/06:32am 7.3 W 15 25 1011.2 - 8.4 - - - - - - -
26/06:30am 7.2 W 14 19 1011.2 - 8.4 - - - - - - -
26/06:00am 6.6 W 17 21 1010.7 - 8.4 - - - - - - -
26/05:30am 6.4 W 15 23 1010.4 - 8.4 - - - - - - -
26/05:00am 6.6 W 17 21 1010.0 - 8.4 - - - - - - -
26/04:30am 6.3 W 19 24 1009.8 - 8.4 - - - - - - -
26/04:00am 6.5 W 16 20 1009.7 - 8.4 - - - - - - -
26/03:30am 5.9 WNW 13 19 1009.5 - 8.2 - - - - - - -
26/03:00am 6.0 WNW 16 21 1009.4 - 8.2 Recent precip. - - - - - -
26/02:30am 5.9 W 17 22 1009.2 - 8.2 - - - - - - -
26/02:00am 5.9 W 14 16 1009.4 - 7.6 - - - - - - -
26/01:30am 5.9 WNW 11 15 1009.1 - 7.4 - - - - - - -
26/01:00am 5.7 W 14 18 1008.8 - 7.4 - - - - - - -
26/12:30am 5.8 WNW 12 17 1009.0 - 7.0 - - - - - - -
26/12:00am 5.8 W 21 25 1008.6 - 6.8 Recent precip. - - - - - -
 
Date/Time
EST
Temp
°C
Wind Pressure Rain since
9am
mm
Weather Cloud Vis
km
Sea
Height
m
Swell
Dir  Spd
kts
Gust
kts
hPa Trend Height
m
Period
s
Dir
25/11:30pm 5.9 W 16 23 1008.7 - 6.6 - - - - - - -
25/11:00pm 5.6 WNW 10 16 1008.3 - 6.2 - - - - - - -
25/10:30pm 5.8 W 13 19 1008.4 - 6.2 - - - - - - -
25/10:15pm 5.9 WNW 15 25 1008.3 - 6.0 - - - - - - -
25/10:00pm 6.0 WNW 12 19 1008.2 - 5.8 - - - - - - -
25/09:30pm 5.8 WNW 14 22 1008.0 - 5.8 - - - - - - -
25/09:00pm 6.1 W 13 16 1007.7 - 5.8 - - - - - - -
25/08:30pm 6.1 W 16 22 1007.5 - 5.8 - - - - - - -
25/08:00pm 5.5 W 20 33 1007.1 - 5.8 - - - - - - -
25/07:57pm 5.7 W 23 33 1007.0 - 5.8 - - - - - - -
25/07:30pm 6.7 WSW 22 30 1006.6 - 5.0 - - - - - - -
25/07:07pm 6.0 WSW 19 29 1006.5 - 5.0 - - - - - - -
25/07:00pm 6.4 WSW 23 29 1006.4 - 5.0 - - - - - - -
25/06:53pm 7.0 WSW 23 28 1006.2 - 4.8 - - - - - - -
25/06:30pm 7.0 W 19 22 1005.6 - 4.8 - - - - - - -
25/06:00pm 6.6 W 13 19 1005.4 - 4.8 Recent precip. - - - - - -
25/05:42pm 6.4 WSW 19 27 1005.3 - 4.8 - - - - - - -
25/05:40pm 6.6 WSW 20 30 1005.3 - 4.8 - - - - - - -
25/05:30pm 6.7 WSW 22 30 1004.9 - 4.8 - - - - - - -
25/05:00pm 6.9 W 19 27 1004.4 - 4.6 - - - - - - -
25/04:32pm 8.3 WSW 20 30 1004.1 - 4.6 - - - - - - -
25/04:30pm 8.6 WSW 21 30 1004.1 - 4.6 - - - - - - -
25/04:00pm 7.8 WSW 20 28 1003.5 - 4.6 - - - - - - -
25/03:30pm 8.6 WSW 24 31 1003.1 - 4.6 - - - - - - -
25/03:00pm 8.3 WSW 24 34 1002.8 - 4.6 Recent precip. - - - - - -
25/02:44pm 7.6 WSW 25 35 1002.4 - 4.6 - - - - - - -
25/02:30pm 7.9 WSW 23 32 1002.2 - 4.6 - - - - - - -
25/02:01pm 7.1 WSW 23 33 1001.9 - 4.2 - - - - - - -
25/02:00pm 7.6 WSW 23 30 1001.9 - 4.2 - - - - - - -
25/01:34pm 7.4 WSW 25 35 1001.6 - 3.8 - - - - - - -
25/01:30pm 7.4 WSW 26 34 1001.6 - 3.6 - - - - - - -
25/01:13pm 7.7 WSW 23 33 1001.1 - 3.6 - - - - - - -
25/01:00pm 7.5 WSW 23 29 1001.0 - 3.6 - - - - - - -
25/12:39pm 7.6 WSW 23 34 1000.6 - 2.6 - - - - - - -
25/12:30pm 8.2 WSW 23 31 1000.6 - 2.4 - - - - - - -
25/12:15pm 8.1 WSW 20 31 1000.4 - 2.2 - - - - - - -
25/12:00pm 7.5 WSW 23 29 1000.3 - 2.2 Rain - - - - - -
25/11:46am 8.2 WSW 20 30 1000.0 - 1.8 - - - - - - -
25/11:30am 8.3 WSW 20 28 999.8 - 1.8 - - - - - - -
25/11:00am 7.8 WSW 26 34 999.3 - 1.8 - - - - - - -
25/10:30am 7.8 WSW 30 37 998.8 - 1.4 - - - - - - -
25/10:00am 7.9 WSW 31 41 998.0 - 1.0 - - - - - - -
25/09:30am 8.1 WSW 31 42 997.3 - 0.6 - - - - - - -
25/09:28am 8.1 WSW 30 42 997.3 - 0.6 - - - - - - -
25/09:00am 8.0 WSW 32 39 996.8 - 3.2 Rain - - - - - -
25/08:32am 8.6 W 31 41 995.9 - 2.8 - - - - - - -
25/08:30am 8.8 W 32 41 995.9 - 2.8 - - - - - - -
25/08:00am 8.3 W 27 41 995.3 - 2.8 - - - - - - -
25/07:30am 8.4 W 29 39 994.8 - 2.8 - - - - - - -
25/07:16am 8.1 W 31 41 994.5 - 2.8 - - - - - - -
25/07:00am 7.8 W 31 37 994.3 - 2.8 - - - - - - -
25/06:30am 8.0 W 28 38 993.8 - 2.8 - - - - - - -
25/06:10am 7.9 W 26 37 993.5 - 2.8 - - - - - - -
25/06:00am 8.1 W 25 33 993.3 - 2.8 - - - - - - -
25/05:30am 8.0 W 22 30 993.2 - 2.8 - - - - - - -
25/05:00am 7.5 W 21 31 993.0 - 2.8 - - - - - - -
25/04:59am 7.5 W 21 31 993.0 - 2.8 - - - - - - -
25/04:30am 7.5 W 21 27 992.7 - 2.8 - - - - - - -
25/04:00am 7.8 W 20 26 992.6 - 2.8 - - - - - - -
25/03:30am 7.5 W 24 32 992.3 - 2.8 - - - - - - -
25/03:00am 7.8 W 26 32 991.7 - 2.8 - - - - - - -
25/02:44am 7.8 W 25 35 991.6 - 2.8 - - - - - - -
25/02:30am 7.5 W 23 31 991.5 - 2.8 - - - - - - -
25/02:00am 7.4 W 24 31 991.4 - 2.8 - - - - - - -
25/01:36am 7.6 W 21 31 991.3 - 2.8 - - - - - - -
25/01:30am 7.6 W 21 26 991.3 - 2.8 - - - - - - -
25/01:00am 8.0 W 21 26 991.0 - 2.8 - - - - - - -
25/12:46am 7.9 W 21 31 991.0 - 2.8 - - - - - - -
25/12:30am 7.6 W 21 29 990.7 - 2.8 - - - - - - -
25/12:00am 7.8 W 21 30 990.7 - 2.8 - - - - - - -
 
Date/Time
EST
Temp
°C
Wind Pressure Rain since
9am
mm
Weather Cloud Vis
km
Sea
Height
m
Swell
Dir  Spd
kts
Gust
kts
hPa Trend Height
m
Period
s
Dir
24/11:55pm 8.0 W 20 30 990.6 - 2.8 - - - - - - -
24/11:30pm 7.7 W 19 25 990.5 - 2.8 - - - - - - -
24/11:00pm 8.2 WSW 18 22 990.5 - 2.8 - - - - - - -
24/10:30pm 7.9 WSW 20 27 990.0 - 2.8 - - - - - - -
24/10:00pm 8.0 WSW 22 27 989.9 - 2.8 - - - - - - -
24/09:30pm 8.2 WSW 23 29 989.5 - 2.8 - - - - - - -
24/09:00pm 8.5 WSW 17 22 989.1 - 2.8 Rain - - - - - -
24/08:30pm 8.7 WSW 17 22 988.7 - 2.4 - - - - - - -
24/08:00pm 9.1 WSW 11 18 988.5 - 1.4 - - - - - - -
24/07:30pm 9.5 WSW 13 16 988.1 - 1.4 - - - - - - -
24/07:00pm 9.9 SW 7 10 987.8 - 1.4 - - - - - - -
24/06:30pm 10.1 WNW 7 8 987.4 - 1.2 - - - - - - -
24/06:00pm 10.4 WSW 9 11 987.1 - 0.8 Rain - - - - - -
24/05:30pm 11.2 W 7 9 986.8 - 0.4 - - - - - - -
24/05:00pm 11.8 WSW 9 14 986.4 - 0.4 - - - - - - -
24/04:30pm 13.0 NW 6 9 986.0 - 0.4 - - - - - - -
24/04:00pm 14.3 NW 8 11 985.8 - 0.4 - - - - - - -
24/03:30pm 13.9 NW 7 10 985.6 - 0.4 - - - - - - -
24/03:00pm 13.2 NW 8 12 985.4 - 0.4 - - - - - - -
24/02:30pm 13.8 WNW 9 12 985.4 - 0.4 - - - - - - -
24/02:00pm 13.1 WNW 16 21 985.4 - 0.4 - - - - - - -
24/01:30pm 13.0 WNW 13 19 985.7 - 0.4 - - - - - - -
24/01:00pm 12.6 WNW 15 23 985.6 - 0.4 - - - - - - -
24/12:30pm 12.2 WNW 17 23 985.7 - 0.4 - - - - - - -
24/12:00pm 11.6 WNW 13 21 985.8 - 0.4 Recent precip. - - - - - -
24/11:30am 12.0 WNW 8 11 985.9 - 0.4 - - - - - - -
24/11:00am 12.6 NNW 7 10 986.0 - 0.0 - - - - - - -
24/10:30am 12.2 NW 8 11 986.0 - 0.0 - - - - - - -
24/10:00am 12.0 NW 14 18 986.0 - 0.0 - - - - - - -
24/09:30am 13.6 NW 11 17 985.9 - 0.0 - - - - - - -
24/09:00am 12.3 NW 11 16 986.1 - 4.0 - - - - - - -
24/08:30am 12.1 NW 12 16 986.2 - 4.0 - - - - - - -
24/08:00am 11.2 NW 9 12 986.1 - 4.0 - - - - - - -

Other Formats:

Comma delimited format used in spreadsheet applications
http://www.bom.gov.au/fwo/IDT60701/IDT60701.95967.axf

JavaScript Object Notation format (JSON) in row-major order
http://www.bom.gov.au/fwo/IDT60701/IDT60701.95967.json